Time;durP1;ratioP1;P1;durP2;ratioP2;P2;SDS_P1;SDS_P2;PMS_P1;PMS_P2;Temp;Humidity;BMP_temperature;BMP_pressure;BME280_temperature;BME280_humidity;BME280_pressure;Samples;Min_cycle;Max_cycle;Signal;HPM_P1;HPM_P2
2022/06/17 00:00:43;;;;;;;1.75;1.58;;;;;;;;;;4562890;28;20087;-74
2022/06/17 00:02:54;;;;;;;1.40;1.30;;;;;;;;;;4566434;28;20111;-73
2022/06/17 00:05:05;;;;;;;1.65;1.42;;;;;;;;;;4563716;28;20039;-73
2022/06/17 00:07:15;;;;;;;2.80;1.60;;;;;;;;;;4563441;28;20107;-73
2022/06/17 00:09:27;;;;;;;1.50;1.35;;;;;;;;;;4562582;27;20511;-74
2022/06/17 00:11:38;;;;;;;1.60;1.50;;;;;;;;;;4560930;28;20024;-73
2022/06/17 00:13:49;;;;;;;2.22;1.40;;;;;;;;;;4562890;28;20037;-74
2022/06/17 00:15:59;;;;;;;1.67;1.55;;;;;;;;;;4564244;27;20033;-73
2022/06/17 00:18:10;;;;;;;2.15;1.73;;;;;;;;;;4563841;28;20043;-73
2022/06/17 00:20:23;;;;;;;1.95;1.70;;;;;;;;;;4561805;28;20045;-73
2022/06/17 00:22:33;;;;;;;1.63;1.52;;;;;;;;;;4563971;28;20044;-73
2022/06/17 00:24:44;;;;;;;2.00;1.60;;;;;;;;;;4560808;28;20516;-73
2022/06/17 00:26:55;;;;;;;1.70;1.42;;;;;;;;;;4563247;27;20036;-74
2022/06/17 00:29:07;;;;;;;1.70;1.60;;;;;;;;;;4562597;27;20036;-74
2022/06/17 00:31:18;;;;;;;1.58;1.48;;;;;;;;;;4561746;28;20111;-74
2022/06/17 00:33:28;;;;;;;1.65;1.55;;;;;;;;;;4567824;28;20040;-74
2022/06/17 00:35:42;;;;;;;1.50;1.40;;;;;;;;;;4565106;28;20044;-73
2022/06/17 00:37:53;;;;;;;2.78;1.60;;;;;;;;;;4556481;28;20028;-73
2022/06/17 00:40:11;;;;;;;2.55;1.58;;;;;;;;;;4550283;28;20036;-73
2022/06/17 00:42:22;;;;;;;2.40;1.85;;;;;;;;;;4565093;28;20067;-73
2022/06/17 00:44:51;;;;;;;1.88;1.60;;;;;;;;;;4551336;28;20575;-74
2022/06/17 00:47:20;;;;;;;1.48;1.38;;;;;;;;;;4566058;27;20040;-74
2022/06/17 00:49:45;;;;;;;2.10;1.58;;;;;;;;;;4567124;28;20040;-74
2022/06/17 00:52:00;;;;;;;2.08;1.52;;;;;;;;;;4563212;28;20052;-74
2022/06/17 00:54:32;;;;;;;1.65;1.42;;;;;;;;;;4565072;28;20160;-73
2022/06/17 00:56:43;;;;;;;1.67;1.58;;;;;;;;;;4573272;28;20067;-74
2022/06/17 00:59:04;;;;;;;1.90;1.58;;;;;;;;;;4567287;27;20112;-73
2022/06/17 01:01:15;;;;;;;2.60;1.67;;;;;;;;;;4557193;28;20050;-73
2022/06/17 01:03:34;;;;;;;1.83;1.60;;;;;;;;;;4552148;28;20038;-74
2022/06/17 01:05:49;;;;;;;2.63;1.70;;;;;;;;;;4562070;28;20035;-73
2022/06/17 01:10:59;;;;;;;1.55;1.45;;;;;;;;;;4566361;28;20031;-73
2022/06/17 01:13:11;;;;;;;2.10;1.60;;;;;;;;;;4567729;28;20025;-74
2022/06/17 01:15:26;;;;;;;2.15;1.65;;;;;;;;;;4551913;28;20035;-73
2022/06/17 01:17:40;;;;;;;1.70;1.60;;;;;;;;;;4565269;28;20032;-73
2022/06/17 01:19:56;;;;;;;1.42;1.30;;;;;;;;;;4566443;27;21200;-74
2022/06/17 01:22:27;;;;;;;2.42;1.65;;;;;;;;;;4563736;28;20035;-73
2022/06/17 01:24:38;;;;;;;2.40;1.48;;;;;;;;;;4572637;28;20039;-73
2022/06/17 01:26:48;;;;;;;1.85;1.55;;;;;;;;;;4549266;28;20492;-73
2022/06/17 01:28:58;;;;;;;2.17;1.70;;;;;;;;;;4551546;28;22160;-73
2022/06/17 01:31:09;;;;;;;2.08;1.88;;;;;;;;;;4563103;28;20115;-73
2022/06/17 01:33:28;;;;;;;2.85;1.77;;;;;;;;;;4549664;28;20761;-73
2022/06/17 01:35:47;;;;;;;1.80;1.65;;;;;;;;;;4567082;28;20029;-73
2022/06/17 01:37:58;;;;;;;1.92;1.67;;;;;;;;;;4566155;28;20040;-74
2022/06/17 01:40:09;;;;;;;1.70;1.60;;;;;;;;;;4563568;28;20028;-73
2022/06/17 01:42:19;;;;;;;1.88;1.60;;;;;;;;;;4573166;28;20107;-73
2022/06/17 01:44:34;;;;;;;2.50;1.50;;;;;;;;;;4547150;28;20030;-73
2022/06/17 01:46:46;;;;;;;2.78;1.80;;;;;;;;;;4563321;28;20119;-74
2022/06/17 01:49:05;;;;;;;2.38;1.60;;;;;;;;;;4579981;27;20036;-73
2022/06/17 01:51:18;;;;;;;2.08;1.38;;;;;;;;;;4566545;28;20098;-74
2022/06/17 01:53:31;;;;;;;2.00;1.40;;;;;;;;;;4561983;28;20633;-74
2022/06/17 01:55:50;;;;;;;1.90;1.50;;;;;;;;;;4563918;28;20115;-73
2022/06/17 01:58:11;;;;;;;1.30;1.20;;;;;;;;;;4564891;27;20036;-73
2022/06/17 02:00:26;;;;;;;1.60;1.50;;;;;;;;;;4564716;28;20038;-72
2022/06/17 02:02:39;;;;;;;2.33;1.60;;;;;;;;;;4572681;27;20194;-71
2022/06/17 02:04:57;;;;;;;2.42;1.70;;;;;;;;;;4573530;28;20175;-71
2022/06/17 02:07:21;;;;;;;1.65;1.55;;;;;;;;;;4555489;28;20025;-71
2022/06/17 02:09:32;;;;;;;1.63;1.50;;;;;;;;;;4549601;28;20087;-72
2022/06/17 02:11:42;;;;;;;1.90;1.70;;;;;;;;;;4565599;28;20116;-73
2022/06/17 02:13:57;;;;;;;1.95;1.58;;;;;;;;;;4572802;28;20039;-72
2022/06/17 02:16:31;;;;;;;1.60;1.48;;;;;;;;;;4553706;28;20036;-72
2022/06/17 02:19:01;;;;;;;2.28;1.50;;;;;;;;;;4563778;28;20048;-72
2022/06/17 02:21:16;;;;;;;2.00;1.52;;;;;;;;;;4567446;27;20063;-73
2022/06/17 02:23:28;;;;;;;1.50;1.40;;;;;;;;;;4555154;28;20048;-72
2022/06/17 02:25:42;;;;;;;1.75;1.45;;;;;;;;;;4564174;28;20029;-72
2022/06/17 02:27:57;;;;;;;1.50;1.40;;;;;;;;;;4549040;28;20161;-72
2022/06/17 02:30:11;;;;;;;1.77;1.67;;;;;;;;;;4572094;28;20032;-72
2022/06/17 02:32:21;;;;;;;1.75;1.63;;;;;;;;;;4561486;28;20072;-72
2022/06/17 02:34:32;;;;;;;2.25;1.80;;;;;;;;;;4562515;28;20535;-72
2022/06/17 02:37:01;;;;;;;2.15;1.70;;;;;;;;;;4563000;28;20107;-74
2022/06/17 02:39:12;;;;;;;2.88;1.77;;;;;;;;;;4565205;28;20032;-71
2022/06/17 02:41:24;;;;;;;1.67;1.48;;;;;;;;;;4571700;28;20619;-71
2022/06/17 02:43:38;;;;;;;1.73;1.63;;;;;;;;;;4566199;28;20256;-71
2022/06/17 02:45:53;;;;;;;2.67;1.77;;;;;;;;;;4571350;28;20035;-71
2022/06/17 02:48:21;;;;;;;1.90;1.60;;;;;;;;;;4556419;28;20669;-71
2022/06/17 02:50:33;;;;;;;2.30;1.70;;;;;;;;;;4564079;28;20047;-71
2022/06/17 02:52:44;;;;;;;1.95;1.55;;;;;;;;;;4565490;28;20040;-71
2022/06/17 02:54:57;;;;;;;1.95;1.60;;;;;;;;;;4562546;28;20512;-71
2022/06/17 02:57:10;;;;;;;1.73;1.60;;;;;;;;;;4564924;27;20039;-71
2022/06/17 02:59:29;;;;;;;2.30;1.40;;;;;;;;;;4561881;28;20814;-71
2022/06/17 03:01:41;;;;;;;2.22;1.60;;;;;;;;;;4560536;28;20506;-71
2022/06/17 03:04:18;;;;;;;1.48;1.38;;;;;;;;;;4561400;28;20042;-72
2022/06/17 03:06:49;;;;;;;1.85;1.50;;;;;;;;;;4572651;28;20036;-72
2022/06/17 03:09:17;;;;;;;1.77;1.55;;;;;;;;;;4570731;27;20039;-72
2022/06/17 03:11:28;;;;;;;1.70;1.50;;;;;;;;;;4549274;28;20136;-73
2022/06/17 03:14:04;;;;;;;1.83;1.55;;;;;;;;;;4571800;28;20032;-72
2022/06/17 03:16:16;;;;;;;1.60;1.50;;;;;;;;;;4553898;28;20024;-72
2022/06/17 03:18:27;;;;;;;1.63;1.50;;;;;;;;;;4578386;27;20528;-72
2022/06/17 03:20:39;;;;;;;3.03;1.70;;;;;;;;;;4554398;28;20143;-71
2022/06/17 03:22:51;;;;;;;1.75;1.60;;;;;;;;;;4561024;28;20033;-72
2022/06/17 03:25:14;;;;;;;2.42;1.60;;;;;;;;;;4567164;28;20033;-72
2022/06/17 03:27:39;;;;;;;2.88;1.80;;;;;;;;;;4547172;28;20669;-72
2022/06/17 03:29:55;;;;;;;1.52;1.33;;;;;;;;;;4569569;28;20031;-73
2022/06/17 03:32:11;;;;;;;1.42;1.33;;;;;;;;;;4561084;28;20125;-72
2022/06/17 03:34:25;;;;;;;2.03;1.40;;;;;;;;;;4553972;28;20523;-71
2022/06/17 03:36:38;;;;;;;1.70;1.60;;;;;;;;;;4554138;28;20047;-72
2022/06/17 03:38:56;;;;;;;1.60;1.50;;;;;;;;;;4578230;27;21077;-72
2022/06/17 03:41:15;;;;;;;1.70;1.50;;;;;;;;;;4570344;28;20044;-73
2022/06/17 03:43:29;;;;;;;2.00;1.60;;;;;;;;;;4559831;28;20161;-72
2022/06/17 03:45:48;;;;;;;2.50;1.60;;;;;;;;;;4560711;28;20039;-72
2022/06/17 03:48:10;;;;;;;1.70;1.50;;;;;;;;;;4544187;28;20103;-72
2022/06/17 03:50:26;;;;;;;1.52;1.40;;;;;;;;;;4543406;28;20132;-72
2022/06/17 03:52:52;;;;;;;1.45;1.33;;;;;;;;;;4548873;28;20616;-73
2022/06/17 03:55:05;;;;;;;2.33;1.70;;;;;;;;;;4561306;28;20480;-72
2022/06/17 03:57:16;;;;;;;1.60;1.50;;;;;;;;;;4562312;28;20793;-73
2022/06/17 03:59:29;;;;;;;1.58;1.48;;;;;;;;;;4553738;28;20035;-73
2022/06/17 04:02:05;;;;;;;1.85;1.30;;;;;;;;;;4561715;28;20051;-74
2022/06/17 04:04:18;;;;;;;1.80;1.40;;;;;;;;;;4577585;27;20684;-73
2022/06/17 04:06:34;;;;;;;1.85;1.55;;;;;;;;;;4549383;28;21115;-74
2022/06/17 04:09:00;;;;;;;1.65;1.48;;;;;;;;;;4549411;28;20040;-73
2022/06/17 04:11:12;;;;;;;2.13;1.48;;;;;;;;;;4549863;28;20555;-73
2022/06/17 04:13:27;;;;;;;2.13;1.33;;;;;;;;;;4550391;28;20044;-72
2022/06/17 04:15:54;;;;;;;1.58;1.20;;;;;;;;;;4555676;28;20040;-72
2022/06/17 04:18:05;;;;;;;1.42;1.23;;;;;;;;;;4574292;28;20143;-72
2022/06/17 04:20:37;;;;;;;1.92;1.50;;;;;;;;;;4569924;27;20036;-73
2022/06/17 04:22:49;;;;;;;1.38;1.27;;;;;;;;;;4551150;28;20099;-73
2022/06/17 04:25:13;;;;;;;1.20;1.10;;;;;;;;;;4562366;28;20029;-73
2022/06/17 04:27:24;;;;;;;1.75;1.30;;;;;;;;;;4556497;28;20135;-73
2022/06/17 04:29:48;;;;;;;1.83;1.30;;;;;;;;;;4574709;28;20040;-73
2022/06/17 04:32:18;;;;;;;1.60;1.45;;;;;;;;;;4555522;28;20103;-73
2022/06/17 04:34:28;;;;;;;1.38;1.27;;;;;;;;;;4562247;28;20064;-72
2022/06/17 04:36:43;;;;;;;1.70;1.42;;;;;;;;;;4565521;28;20043;-74
2022/06/17 04:38:58;;;;;;;1.67;1.30;;;;;;;;;;4566533;28;20118;-72
2022/06/17 04:41:26;;;;;;;1.60;1.50;;;;;;;;;;4556395;28;20078;-73
2022/06/17 04:43:53;;;;;;;1.70;1.33;;;;;;;;;;4551219;28;20582;-73
2022/06/17 04:46:08;;;;;;;1.50;1.40;;;;;;;;;;4566375;28;20036;-73
2022/06/17 04:48:19;;;;;;;2.15;1.40;;;;;;;;;;4565688;28;20029;-72
2022/06/17 04:50:33;;;;;;;4.50;1.60;;;;;;;;;;4566546;28;20032;-72
2022/06/17 04:52:46;;;;;;;2.55;1.30;;;;;;;;;;4564498;28;20032;-73
2022/06/17 04:55:28;;;;;;;3.00;2.10;;;;;;;;;;4561649;28;21579;-71
2022/06/17 04:57:57;;;;;;;2.65;2.00;;;;;;;;;;4564728;28;20721;-72
2022/06/17 05:00:21;;;;;;;2.20;1.95;;;;;;;;;;4556328;28;20105;-71
2022/06/17 05:02:34;;;;;;;2.20;1.90;;;;;;;;;;4555020;28;20036;-70
2022/06/17 05:05:06;;;;;;;1.80;1.65;;;;;;;;;;4557498;28;20032;-71
2022/06/17 05:07:17;;;;;;;2.78;2.10;;;;;;;;;;4563836;28;20103;-72
2022/06/17 05:10:05;;;;;;;2.35;1.92;;;;;;;;;;4568247;28;20032;-71
2022/06/17 05:12:25;;;;;;;2.67;2.10;;;;;;;;;;4530480;28;20048;-71
2022/06/17 05:14:56;;;;;;;2.53;2.00;;;;;;;;;;4564721;28;20025;-71
2022/06/17 05:17:06;;;;;;;2.58;1.88;;;;;;;;;;4562094;28;20040;-72
2022/06/17 05:19:20;;;;;;;2.53;1.98;;;;;;;;;;4566443;28;20043;-72
2022/06/17 05:21:32;;;;;;;2.10;1.88;;;;;;;;;;4578932;27;20036;-70
2022/06/17 05:23:54;;;;;;;2.00;1.80;;;;;;;;;;4561950;28;20821;-71
2022/06/17 05:26:05;;;;;;;2.53;1.85;;;;;;;;;;4572977;28;20044;-72
2022/06/17 05:28:19;;;;;;;2.50;1.98;;;;;;;;;;4549621;28;20033;-71
2022/06/17 05:30:35;;;;;;;3.70;2.45;;;;;;;;;;4572911;28;20615;-72
2022/06/17 05:32:51;;;;;;;2.03;1.77;;;;;;;;;;4549879;28;20098;-71
2022/06/17 05:35:03;;;;;;;2.15;1.80;;;;;;;;;;4566670;27;20155;-71
2022/06/17 05:37:14;;;;;;;2.65;2.20;;;;;;;;;;4565674;28;20123;-72
2022/06/17 05:39:26;;;;;;;2.25;1.90;;;;;;;;;;4566950;28;20073;-71
2022/06/17 05:41:37;;;;;;;2.35;2.00;;;;;;;;;;4566522;28;20045;-71
2022/06/17 05:43:49;;;;;;;2.08;1.88;;;;;;;;;;4567486;28;20047;-71
2022/06/17 05:46:18;;;;;;;2.95;2.03;;;;;;;;;;4562462;28;20038;-68
2022/06/17 05:48:41;;;;;;;2.20;2.00;;;;;;;;;;4566688;28;20058;-70
2022/06/17 05:51:11;;;;;;;3.60;2.10;;;;;;;;;;4566309;28;20025;-69
2022/06/17 05:53:40;;;;;;;2.20;2.00;;;;;;;;;;4562226;28;20040;-68
2022/06/17 05:56:09;;;;;;;2.80;2.10;;;;;;;;;;4563588;28;20048;-70
2022/06/17 05:58:20;;;;;;;2.47;2.20;;;;;;;;;;4563214;28;20040;-70
2022/06/17 06:00:33;;;;;;;2.38;1.95;;;;;;;;;;4549480;28;20055;-69
2022/06/17 06:02:43;;;;;;;2.42;2.10;;;;;;;;;;4565793;28;20133;-68
2022/06/17 06:05:07;;;;;;;2.25;1.95;;;;;;;;;;4571760;28;20040;-68
2022/06/17 06:07:22;;;;;;;2.03;1.83;;;;;;;;;;4562745;28;20035;-69
2022/06/17 06:09:34;;;;;;;2.70;2.10;;;;;;;;;;4554704;28;20047;-68
2022/06/17 06:11:44;;;;;;;2.33;2.13;;;;;;;;;;4561904;28;20028;-69
2022/06/17 06:13:57;;;;;;;2.65;2.13;;;;;;;;;;4566635;27;20038;-68
2022/06/17 06:16:08;;;;;;;2.55;1.98;;;;;;;;;;4564507;28;20060;-68
2022/06/17 06:18:47;;;;;;;;;;;;;;;;;;4561600;27;20044;-68
2022/06/17 06:21:04;;;;;;;2.90;1.90;;;;;;;;;;4566038;28;20049;-69
2022/06/17 06:23:15;;;;;;;2.70;2.00;;;;;;;;;;4564771;27;20347;-70
2022/06/17 06:25:26;;;;;;;3.35;2.03;;;;;;;;;;4537395;28;20563;-69
2022/06/17 06:27:39;;;;;;;2.15;1.95;;;;;;;;;;4566342;28;20039;-69
2022/06/17 06:29:50;;;;;;;3.03;2.15;;;;;;;;;;4570420;27;20505;-70
2022/06/17 06:32:01;;;;;;;2.58;1.92;;;;;;;;;;4555569;28;20095;-69
2022/06/17 06:34:31;;;;;;;3.80;2.03;;;;;;;;;;4560669;28;20047;-69
2022/06/17 06:36:42;;;;;;;2.25;1.90;;;;;;;;;;4571320;28;20566;-70
2022/06/17 06:38:52;;;;;;;2.17;1.60;;;;;;;;;;4551228;28;20044;-69
2022/06/17 06:41:04;;;;;;;1.70;1.60;;;;;;;;;;4571591;28;20044;-69
2022/06/17 06:43:18;;;;;;;3.50;1.95;;;;;;;;;;4547747;28;20838;-69
2022/06/17 06:45:50;;;;;;;2.00;1.73;;;;;;;;;;4566011;28;20051;-70
2022/06/17 06:48:05;;;;;;;3.38;1.95;;;;;;;;;;4554221;28;20056;-69
2022/06/17 06:50:19;;;;;;;2.35;1.80;;;;;;;;;;4570900;28;20030;-68
2022/06/17 06:52:29;;;;;;;2.80;1.92;;;;;;;;;;4561054;28;20059;-70
2022/06/17 06:54:40;;;;;;;2.92;1.80;;;;;;;;;;4562985;28;20036;-70
2022/06/17 06:56:51;;;;;;;2.72;1.80;;;;;;;;;;4564490;28;20638;-70
2022/06/17 06:59:01;;;;;;;3.30;1.83;;;;;;;;;;4570650;28;20040;-69
2022/06/17 07:01:12;;;;;;;2.67;1.95;;;;;;;;;;4553180;28;20044;-69
2022/06/17 07:03:24;;;;;;;2.50;1.80;;;;;;;;;;4564090;28;20068;-69
2022/06/17 07:05:37;;;;;;;3.00;1.92;;;;;;;;;;4554000;28;20040;-69
2022/06/17 07:07:48;;;;;;;2.00;1.80;;;;;;;;;;4561985;28;20071;-69
2022/06/17 07:09:58;;;;;;;2.88;2.00;;;;;;;;;;4562456;28;20232;-69
2022/06/17 07:12:09;;;;;;;3.20;1.90;;;;;;;;;;4562751;28;20062;-68
2022/06/17 07:14:19;;;;;;;3.97;1.92;;;;;;;;;;4563441;28;20036;-68
2022/06/17 07:16:30;;;;;;;2.70;1.95;;;;;;;;;;4562407;27;20816;-69
2022/06/17 07:18:40;;;;;;;2.03;1.80;;;;;;;;;;4570735;28;20067;-69
2022/06/17 07:20:53;;;;;;;2.95;1.80;;;;;;;;;;4562016;28;20068;-69
2022/06/17 07:23:05;;;;;;;2.90;2.03;;;;;;;;;;4560319;28;20750;-69
2022/06/17 07:25:15;;;;;;;2.58;1.90;;;;;;;;;;4561508;28;20024;-69
2022/06/17 07:27:25;;;;;;;2.90;2.00;;;;;;;;;;4564849;27;20036;-69
2022/06/17 07:29:36;;;;;;;2.28;1.60;;;;;;;;;;4562719;28;20408;-69
2022/06/17 07:31:46;;;;;;;2.17;1.88;;;;;;;;;;4563634;28;20059;-69
2022/06/17 07:33:57;;;;;;;3.13;2.10;;;;;;;;;;4564711;28;20036;-69
2022/06/17 07:39:53;;;;;;;2.00;1.58;;;;;;;;;;4562633;28;20031;-68
2022/06/17 07:41:13;;;;;;;3.03;1.80;;;;;;;;;;4560923;28;20047;-69
2022/06/17 07:43:24;;;;;;;2.22;1.70;;;;;;;;;;4564333;28;20502;-69
2022/06/17 07:45:34;;;;;;;2.75;1.92;;;;;;;;;;4564875;28;20040;-68
2022/06/17 07:47:48;;;;;;;2.13;1.50;;;;;;;;;;4566145;28;20039;-69
2022/06/17 07:49:59;;;;;;;2.38;1.60;;;;;;;;;;4564096;27;20035;-69
2022/06/17 07:52:10;;;;;;;3.72;1.95;;;;;;;;;;4565966;28;20025;-69
2022/06/17 07:54:20;;;;;;;3.03;1.58;;;;;;;;;;4565827;28;20028;-71
2022/06/17 07:56:31;;;;;;;1.80;1.60;;;;;;;;;;4565240;28;20032;-69
2022/06/17 07:58:42;;;;;;;1.95;1.60;;;;;;;;;;4565168;28;20476;-69
2022/06/17 08:00:55;;;;;;;2.10;1.50;;;;;;;;;;4566488;28;20045;-68
2022/06/17 08:03:05;;;;;;;1.50;1.35;;;;;;;;;;4567081;28;20028;-69
2022/06/17 08:05:16;;;;;;;2.63;1.60;;;;;;;;;;4567660;28;20032;-69
2022/06/17 08:07:28;;;;;;;1.70;1.60;;;;;;;;;;4567018;28;20618;-69
2022/06/17 08:09:39;;;;;;;1.55;1.30;;;;;;;;;;4566762;27;20043;-70
2022/06/17 08:11:51;;;;;;;1.90;1.30;;;;;;;;;;4565552;28;20028;-69
2022/06/17 08:14:01;;;;;;;2.05;1.38;;;;;;;;;;4567807;28;20054;-69
2022/06/17 08:16:13;;;;;;;2.42;1.60;;;;;;;;;;4566034;27;20051;-69
2022/06/17 08:18:24;;;;;;;1.60;1.30;;;;;;;;;;4566581;28;20024;-69
2022/06/17 08:20:35;;;;;;;2.03;1.45;;;;;;;;;;4566386;28;20036;-69
2022/06/17 08:22:45;;;;;;;1.98;1.55;;;;;;;;;;4567450;28;20043;-69
2022/06/17 08:24:56;;;;;;;2.17;1.50;;;;;;;;;;4565435;28;20035;-70
2022/06/17 08:27:06;;;;;;;1.80;1.30;;;;;;;;;;4564280;27;20760;-69
2022/06/17 08:29:17;;;;;;;1.60;1.50;;;;;;;;;;4566307;28;21328;-69
2022/06/17 08:31:27;;;;;;;1.75;1.50;;;;;;;;;;4566531;28;20075;-70
2022/06/17 08:33:38;;;;;;;2.53;1.70;;;;;;;;;;4565910;28;20571;-69
2022/06/17 08:35:48;;;;;;;2.25;1.42;;;;;;;;;;4565332;28;20036;-70
2022/06/17 08:38:06;;;;;;;1.65;1.52;;;;;;;;;;4567308;28;20114;-69
2022/06/17 08:40:29;;;;;;;2.28;1.70;;;;;;;;;;4564348;28;20040;-70
2022/06/17 08:43:08;;;;;;;1.85;1.65;;;;;;;;;;4564093;28;20028;-68
2022/06/17 08:45:30;;;;;;;1.85;1.55;;;;;;;;;;4566865;28;21245;-69
2022/06/17 08:47:57;;;;;;;2.67;1.58;;;;;;;;;;4566413;28;20545;-68
2022/06/17 08:50:36;;;;;;;2.38;1.65;;;;;;;;;;4567575;28;20649;-69
2022/06/17 08:53:02;;;;;;;2.13;1.65;;;;;;;;;;4567588;28;20501;-69
2022/06/17 08:55:48;;;;;;;3.05;1.60;;;;;;;;;;4564245;28;20033;-69
2022/06/17 08:58:02;;;;;;;2.10;1.60;;;;;;;;;;4562307;28;20043;-70
2022/06/17 09:00:18;;;;;;;2.97;1.60;;;;;;;;;;4565542;28;20055;-70
2022/06/17 09:02:51;;;;;;;2.40;1.50;;;;;;;;;;4546627;28;21286;-70
2022/06/17 09:05:17;;;;;;;3.22;1.70;;;;;;;;;;4565627;28;20035;-68
2022/06/17 09:07:33;;;;;;;1.85;1.60;;;;;;;;;;4567116;28;20059;-70
2022/06/17 09:09:56;;;;;;;2.47;1.60;;;;;;;;;;4566814;28;20032;-69
2022/06/17 09:12:48;;;;;;;2.45;1.70;;;;;;;;;;4564446;28;21311;-69
2022/06/17 09:15:31;;;;;;;1.88;1.67;;;;;;;;;;4563416;28;20044;-68
2022/06/17 09:18:02;;;;;;;1.98;1.50;;;;;;;;;;4533518;28;20048;-70
2022/06/17 09:20:17;;;;;;;2.03;1.40;;;;;;;;;;4564111;27;20044;-69
2022/06/17 09:22:53;;;;;;;2.28;1.50;;;;;;;;;;4561495;28;20027;-69
2022/06/17 09:25:09;;;;;;;2.63;1.60;;;;;;;;;;4560608;28;20044;-69
2022/06/17 09:27:29;;;;;;;1.50;1.40;;;;;;;;;;4566681;28;20067;-69
2022/06/17 09:30:02;;;;;;;1.50;1.40;;;;;;;;;;4564762;28;20111;-70
2022/06/17 09:32:28;;;;;;;2.13;1.40;;;;;;;;;;4563675;28;20678;-70
2022/06/17 09:34:38;;;;;;;1.95;1.58;;;;;;;;;;4568525;28;20621;-70
2022/06/17 09:37:17;;;;;;;1.77;1.60;;;;;;;;;;4573683;28;20124;-69
2022/06/17 09:39:42;;;;;;;2.30;1.50;;;;;;;;;;4564830;28;20078;-70
2022/06/17 09:41:58;;;;;;;2.67;1.40;;;;;;;;;;4565192;28;20068;-70
2022/06/17 09:44:16;;;;;;;2.33;1.60;;;;;;;;;;4564657;28;20128;-70
2022/06/17 09:46:45;;;;;;;1.67;1.45;;;;;;;;;;4579074;27;20040;-69
2022/06/17 09:49:07;;;;;;;1.50;1.40;;;;;;;;;;4565700;28;20024;-69
2022/06/17 09:51:30;;;;;;;2.70;1.48;;;;;;;;;;4566240;28;20036;-69
2022/06/17 09:54:02;;;;;;;1.30;1.20;;;;;;;;;;4565860;28;20086;-70
2022/06/17 09:56:19;;;;;;;2.05;1.40;;;;;;;;;;4565723;28;21491;-70
2022/06/17 09:58:34;;;;;;;1.52;1.30;;;;;;;;;;4562861;28;20068;-70
2022/06/17 10:00:49;;;;;;;1.55;1.30;;;;;;;;;;4564475;28;20816;-69
2022/06/17 10:03:15;;;;;;;2.00;1.58;;;;;;;;;;4566719;28;20634;-68
2022/06/17 10:05:40;;;;;;;2.53;1.50;;;;;;;;;;4567501;27;20124;-70
2022/06/17 10:08:15;;;;;;;1.85;1.40;;;;;;;;;;4565449;28;20025;-71
2022/06/17 10:10:36;;;;;;;1.65;1.20;;;;;;;;;;4545749;28;20044;-69
2022/06/17 10:13:05;;;;;;;1.65;1.05;;;;;;;;;;4574636;28;20585;-70
2022/06/17 10:15:31;;;;;;;1.23;1.10;;;;;;;;;;4564325;28;20214;-69
2022/06/17 10:20:48;;;;;;;2.10;1.20;;;;;;;;;;4565956;28;20085;-70
2022/06/17 10:23:14;;;;;;;1.15;1.00;;;;;;;;;;4565279;28;20037;-68
2022/06/17 10:25:45;;;;;;;1.88;1.35;;;;;;;;;;4556624;28;20033;-69
2022/06/17 10:28:09;;;;;;;1.55;1.20;;;;;;;;;;4563454;28;20035;-70
2022/06/17 10:30:45;;;;;;;1.90;1.13;;;;;;;;;;4564854;27;20760;-69
2022/06/17 10:32:56;;;;;;;1.10;1.02;;;;;;;;;;4563145;28;20067;-70
2022/06/17 10:35:14;;;;;;;1.88;1.15;;;;;;;;;;4562657;28;22894;-70
2022/06/17 10:37:26;;;;;;;1.70;1.20;;;;;;;;;;4564149;28;20649;-69
2022/06/17 10:39:39;;;;;;;1.23;1.13;;;;;;;;;;4563173;28;20033;-69
2022/06/17 10:41:49;;;;;;;0.98;0.95;;;;;;;;;;4547507;28;21248;-70
2022/06/17 10:44:00;;;;;;;1.20;1.10;;;;;;;;;;4554384;28;20086;-69
2022/06/17 10:46:23;;;;;;;1.17;1.08;;;;;;;;;;4563977;27;20028;-70
2022/06/17 10:48:43;;;;;;;1.20;1.10;;;;;;;;;;4564024;27;20020;-69
2022/06/17 10:50:54;;;;;;;1.30;0.90;;;;;;;;;;4562043;28;20039;-70
2022/06/17 10:53:28;;;;;;;1.40;1.15;;;;;;;;;;4562658;27;20504;-69
2022/06/17 10:55:41;;;;;;;2.42;1.13;;;;;;;;;;4565236;28;20033;-69
2022/06/17 10:58:12;;;;;;;1.10;1.00;;;;;;;;;;4563738;28;20104;-69
2022/06/17 11:00:25;;;;;;;1.23;1.02;;;;;;;;;;4543731;28;20041;-70
2022/06/17 11:02:35;;;;;;;1.10;1.00;;;;;;;;;;4548708;28;20032;-69
2022/06/17 11:05:07;;;;;;;1.23;1.00;;;;;;;;;;4562394;28;20036;-70
2022/06/17 11:07:22;;;;;;;0.85;0.85;;;;;;;;;;4562379;28;20027;-70
2022/06/17 11:09:40;;;;;;;1.50;1.00;;;;;;;;;;4560624;28;20041;-70
2022/06/17 11:12:05;;;;;;;1.17;1.00;;;;;;;;;;4571245;28;20107;-69
2022/06/17 11:14:29;;;;;;;1.40;0.80;;;;;;;;;;4561322;28;20036;-70
2022/06/17 11:16:43;;;;;;;1.20;1.10;;;;;;;;;;4564961;28;20693;-70
2022/06/17 11:19:00;;;;;;;2.05;1.05;;;;;;;;;;4547595;28;20104;-70
2022/06/17 11:21:22;;;;;;;1.50;1.10;;;;;;;;;;4560346;28;20167;-70
2022/06/17 11:23:39;;;;;;;1.23;0.98;;;;;;;;;;4563150;28;20085;-69
2022/06/17 11:26:06;;;;;;;1.08;0.80;;;;;;;;;;4555388;28;20039;-70
2022/06/17 11:28:25;;;;;;;1.10;0.90;;;;;;;;;;4566385;28;20035;-70
2022/06/17 11:30:37;;;;;;;0.80;0.80;;;;;;;;;;4561454;28;20037;-69
2022/06/17 11:32:48;;;;;;;0.88;0.82;;;;;;;;;;4562038;28;20037;-70
2022/06/17 11:35:08;;;;;;;0.85;0.85;;;;;;;;;;4562238;28;20131;-69
2022/06/17 11:37:32;;;;;;;0.85;0.73;;;;;;;;;;4562229;28;20672;-70
2022/06/17 11:39:42;;;;;;;0.80;0.80;;;;;;;;;;4566075;28;20040;-69
2022/06/17 11:41:53;;;;;;;2.92;0.90;;;;;;;;;;4562655;28;20457;-69
2022/06/17 11:44:12;;;;;;;0.80;0.80;;;;;;;;;;4562066;28;20036;-70
2022/06/17 11:46:25;;;;;;;0.75;0.75;;;;;;;;;;4555012;28;20033;-69
2022/06/17 11:48:40;;;;;;;1.15;0.88;;;;;;;;;;4560879;28;20036;-70
2022/06/17 11:51:04;;;;;;;1.08;0.77;;;;;;;;;;4560248;28;20608;-70
2022/06/17 11:53:17;;;;;;;1.13;0.80;;;;;;;;;;4570896;28;20028;-69
2022/06/17 11:55:29;;;;;;;1.00;0.77;;;;;;;;;;4562544;28;20040;-69
2022/06/17 11:57:40;;;;;;;0.70;0.70;;;;;;;;;;4570425;28;20862;-70
2022/06/17 11:59:54;;;;;;;1.08;0.70;;;;;;;;;;4561717;28;20028;-70
2022/06/17 12:02:07;;;;;;;1.50;0.70;;;;;;;;;;4570614;28;20119;-70
2022/06/17 12:04:38;;;;;;;0.80;0.80;;;;;;;;;;4570674;28;20032;-70
2022/06/17 12:06:48;;;;;;;1.00;0.80;;;;;;;;;;4564116;28;20608;-70
2022/06/17 12:09:15;;;;;;;0.68;0.68;;;;;;;;;;4563098;28;20024;-70
2022/06/17 12:11:35;;;;;;;0.60;0.60;;;;;;;;;;4564588;28;20667;-70
2022/06/17 12:13:50;;;;;;;1.23;0.60;;;;;;;;;;4562583;28;20877;-70
2022/06/17 12:16:14;;;;;;;0.70;0.70;;;;;;;;;;4563975;28;20033;-70
2022/06/17 12:18:26;;;;;;;0.50;0.50;;;;;;;;;;4563661;28;20048;-69
2022/06/17 12:20:46;;;;;;;0.68;0.55;;;;;;;;;;4561104;28;20093;-70
2022/06/17 12:23:07;;;;;;;0.70;0.70;;;;;;;;;;4561932;28;20037;-69
2022/06/17 12:25:42;;;;;;;0.47;0.47;;;;;;;;;;4562429;28;20024;-69
2022/06/17 12:27:58;;;;;;;0.60;0.60;;;;;;;;;;4566888;27;20037;-70
2022/06/17 12:30:19;;;;;;;0.65;0.63;;;;;;;;;;4557544;28;20028;-70
2022/06/17 12:32:36;;;;;;;0.65;0.65;;;;;;;;;;4565987;28;20036;-69
2022/06/17 12:35:21;;;;;;;0.60;0.60;;;;;;;;;;4566093;28;20037;-69
2022/06/17 12:37:53;;;;;;;0.50;0.50;;;;;;;;;;4565588;28;20029;-68
2022/06/17 12:40:16;;;;;;;0.47;0.47;;;;;;;;;;4565439;28;20062;-69
2022/06/17 12:42:45;;;;;;;0.50;0.50;;;;;;;;;;4565533;28;20035;-70
2022/06/17 12:45:05;;;;;;;0.60;0.40;;;;;;;;;;4566909;28;20043;-69
2022/06/17 12:47:19;;;;;;;0.60;0.60;;;;;;;;;;4564201;28;20032;-70
2022/06/17 12:55:37;;;;;;;0.50;0.50;;;;;;;;;;4565444;28;20044;-70
2022/06/17 12:58:15;;;;;;;0.60;0.60;;;;;;;;;;4564740;28;20052;-70
2022/06/17 13:00:55;;;;;;;0.50;0.50;;;;;;;;;;4557463;28;20245;-70
2022/06/17 13:03:13;;;;;;;0.45;0.45;;;;;;;;;;4554147;28;20117;-70
2022/06/17 13:05:26;;;;;;;0.50;0.50;;;;;;;;;;4563781;28;20036;-69
2022/06/17 13:07:55;;;;;;;0.50;0.50;;;;;;;;;;4573793;28;20035;-69
2022/06/17 13:12:42;;;;;;;0.43;0.43;;;;;;;;;;4568760;28;20040;-70
2022/06/17 13:14:59;;;;;;;0.70;0.57;;;;;;;;;;4563291;28;22499;-70
2022/06/17 13:17:19;;;;;;;0.50;0.50;;;;;;;;;;4565912;28;20102;-68
2022/06/17 13:19:39;;;;;;;0.60;0.60;;;;;;;;;;4563159;28;20040;-69
2022/06/17 13:22:02;;;;;;;0.40;0.40;;;;;;;;;;4565442;28;20127;-69
2022/06/17 13:24:26;;;;;;;0.57;0.57;;;;;;;;;;4566497;28;20084;-69
2022/06/17 13:26:39;;;;;;;0.40;0.40;;;;;;;;;;4564939;28;20029;-69
2022/06/17 13:29:13;;;;;;;0.40;0.40;;;;;;;;;;4568431;28;20056;-69
2022/06/17 13:31:46;;;;;;;0.43;0.43;;;;;;;;;;4567664;28;20672;-68
2022/06/17 13:34:03;;;;;;;0.35;0.35;;;;;;;;;;4564105;28;20655;-70
2022/06/17 13:36:22;;;;;;;0.68;0.68;;;;;;;;;;4572785;28;20215;-69
2022/06/17 13:38:37;;;;;;;0.50;0.50;;;;;;;;;;4564555;28;20047;-69
2022/06/17 13:40:58;;;;;;;0.50;0.50;;;;;;;;;;4563318;28;20044;-69
2022/06/17 13:43:17;;;;;;;0.50;0.50;;;;;;;;;;4563137;28;20040;-70
2022/06/17 13:45:27;;;;;;;0.50;0.50;;;;;;;;;;4563299;28;20056;-69
2022/06/17 13:48:16;;;;;;;0.40;0.40;;;;;;;;;;4563997;28;20446;-69
2022/06/17 13:50:54;;;;;;;0.30;0.30;;;;;;;;;;4528015;28;20044;-69
2022/06/17 13:53:23;;;;;;;;;;;;;;;;;;4564741;27;20579;-69
2022/06/17 13:55:58;;;;;;;0.77;0.40;;;;;;;;;;4564498;28;19923;-69
2022/06/17 13:58:15;;;;;;;0.40;0.40;;;;;;;;;;4563544;27;20040;-68
2022/06/17 14:00:31;;;;;;;0.50;0.50;;;;;;;;;;4580607;27;20048;-68
2022/06/17 14:03:05;;;;;;;0.40;0.40;;;;;;;;;;4562936;28;20032;-69
2022/06/17 14:05:40;;;;;;;0.45;0.45;;;;;;;;;;4564393;28;20112;-68